sensor_id;sensor_type;location;lat;lon;timestamp;temperature;humidity
38860;DHT22;24609;48.316;16.174;2023-04-03T00:01:08;5.20;99.90
38860;DHT22;24609;48.316;16.174;2023-04-03T00:03:34;5.30;99.90
38860;DHT22;24609;48.316;16.174;2023-04-03T00:06:01;5.20;99.90
38860;DHT22;24609;48.316;16.174;2023-04-03T00:08:27;5.20;99.90
38860;DHT22;24609;48.316;16.174;2023-04-03T00:10:52;5.20;99.90
38860;DHT22;24609;48.316;16.174;2023-04-03T00:13:18;5.20;99.90
38860;DHT22;24609;48.316;16.174;2023-04-03T00:15:44;5.20;99.90
38860;DHT22;24609;48.316;16.174;2023-04-03T00:18:10;5.20;99.90
38860;DHT22;24609;48.316;16.174;2023-04-03T00:20:36;5.20;99.90
38860;DHT22;24609;48.316;16.174;2023-04-03T00:23:02;5.20;99.90
38860;DHT22;24609;48.316;16.174;2023-04-03T00:25:28;5.20;99.90
38860;DHT22;24609;48.316;16.174;2023-04-03T00:27:54;5.20;99.90
38860;DHT22;24609;48.316;16.174;2023-04-03T00:30:21;5.10;99.90
38860;DHT22;24609;48.316;16.174;2023-04-03T00:32:51;5.10;99.90
38860;DHT22;24609;48.316;16.174;2023-04-03T00:35:18;5.10;99.90
38860;DHT22;24609;48.316;16.174;2023-04-03T00:37:44;5.10;99.90
38860;DHT22;24609;48.316;16.174;2023-04-03T00:40:12;5.10;99.90
38860;DHT22;24609;48.316;16.174;2023-04-03T00:42:41;5.10;99.90
38860;DHT22;24609;48.316;16.174;2023-04-03T00:48:11;5.10;99.90
38860;DHT22;24609;48.316;16.174;2023-04-03T00:50:40;5.10;99.90
38860;DHT22;24609;48.316;16.174;2023-04-03T00:53:08;5.10;99.90
38860;DHT22;24609;48.316;16.174;2023-04-03T00:55:38;5.10;99.90
38860;DHT22;24609;48.316;16.174;2023-04-03T00:58:05;5.10;99.90
38860;DHT22;24609;48.316;16.174;2023-04-03T01:00:32;5.10;99.90
38860;DHT22;24609;48.316;16.174;2023-04-03T01:02:58;5.10;99.90
38860;DHT22;24609;48.316;16.174;2023-04-03T01:05:24;5.10;99.90
38860;DHT22;24609;48.316;16.174;2023-04-03T01:07:51;5.10;99.90
38860;DHT22;24609;48.316;16.174;2023-04-03T01:10:18;5.10;99.90
38860;DHT22;24609;48.316;16.174;2023-04-03T01:12:47;5.00;99.90
38860;DHT22;24609;48.316;16.174;2023-04-03T01:15:19;5.10;99.90
38860;DHT22;24609;48.316;16.174;2023-04-03T01:17:51;5.10;99.90
38860;DHT22;24609;48.316;16.174;2023-04-03T01:21:14;5.10;99.90
38860;DHT22;24609;48.316;16.174;2023-04-03T01:24:00;5.10;99.90
38860;DHT22;24609;48.316;16.174;2023-04-03T01:26:27;5.10;99.90
38860;DHT22;24609;48.316;16.174;2023-04-03T01:28:54;5.10;99.90
38860;DHT22;24609;48.316;16.174;2023-04-03T01:31:47;5.00;99.90
38860;DHT22;24609;48.316;16.174;2023-04-03T01:34:13;5.00;99.90
38860;DHT22;24609;48.316;16.174;2023-04-03T01:36:38;5.00;99.90
38860;DHT22;24609;48.316;16.174;2023-04-03T01:39:05;5.00;99.90
38860;DHT22;24609;48.316;16.174;2023-04-03T01:41:31;5.00;99.90
38860;DHT22;24609;48.316;16.174;2023-04-03T01:43:57;5.00;99.90
38860;DHT22;24609;48.316;16.174;2023-04-03T01:46:23;5.00;99.90
38860;DHT22;24609;48.316;16.174;2023-04-03T01:48:49;5.00;99.90
38860;DHT22;24609;48.316;16.174;2023-04-03T01:51:14;5.00;99.90
38860;DHT22;24609;48.316;16.174;2023-04-03T01:53:40;5.00;99.90
38860;DHT22;24609;48.316;16.174;2023-04-03T01:56:06;5.00;99.90
38860;DHT22;24609;48.316;16.174;2023-04-03T01:58:32;5.00;99.90
38860;DHT22;24609;48.316;16.174;2023-04-03T02:00:58;5.00;99.90
38860;DHT22;24609;48.316;16.174;2023-04-03T02:03:23;5.00;99.90
38860;DHT22;24609;48.316;16.174;2023-04-03T02:05:49;5.00;99.90
38860;DHT22;24609;48.316;16.174;2023-04-03T02:08:15;5.00;99.90
38860;DHT22;24609;48.316;16.174;2023-04-03T02:10:44;5.00;99.90
38860;DHT22;24609;48.316;16.174;2023-04-03T02:13:10;5.00;99.90
38860;DHT22;24609;48.316;16.174;2023-04-03T02:15:38;5.00;99.90
38860;DHT22;24609;48.316;16.174;2023-04-03T02:18:05;5.00;99.90
38860;DHT22;24609;48.316;16.174;2023-04-03T02:20:31;5.00;99.90
38860;DHT22;24609;48.316;16.174;2023-04-03T02:22:56;5.00;99.90
38860;DHT22;24609;48.316;16.174;2023-04-03T02:25:22;5.00;99.90
38860;DHT22;24609;48.316;16.174;2023-04-03T02:27:48;5.00;99.90
38860;DHT22;24609;48.316;16.174;2023-04-03T02:30:14;5.00;99.90
38860;DHT22;24609;48.316;16.174;2023-04-03T02:32:41;5.00;99.90
38860;DHT22;24609;48.316;16.174;2023-04-03T02:35:08;5.00;99.90
38860;DHT22;24609;48.316;16.174;2023-04-03T02:37:34;5.00;99.90
38860;DHT22;24609;48.316;16.174;2023-04-03T02:40:00;5.00;99.90
38860;DHT22;24609;48.316;16.174;2023-04-03T02:42:26;5.00;99.90
38860;DHT22;24609;48.316;16.174;2023-04-03T02:44:51;5.00;99.90
38860;DHT22;24609;48.316;16.174;2023-04-03T02:47:17;5.00;99.90
38860;DHT22;24609;48.316;16.174;2023-04-03T02:49:43;5.00;99.90
38860;DHT22;24609;48.316;16.174;2023-04-03T02:52:13;5.00;99.90
38860;DHT22;24609;48.316;16.174;2023-04-03T02:54:38;4.90;99.90
38860;DHT22;24609;48.316;16.174;2023-04-03T02:57:04;5.00;99.90
38860;DHT22;24609;48.316;16.174;2023-04-03T02:59:30;5.00;99.90
38860;DHT22;24609;48.316;16.174;2023-04-03T03:01:55;4.90;99.90
38860;DHT22;24609;48.316;16.174;2023-04-03T03:04:21;4.90;99.90
38860;DHT22;24609;48.316;16.174;2023-04-03T03:06:47;4.90;99.90
38860;DHT22;24609;48.316;16.174;2023-04-03T03:09:13;4.90;99.90
38860;DHT22;24609;48.316;16.174;2023-04-03T03:11:40;4.90;99.90
38860;DHT22;24609;48.316;16.174;2023-04-03T03:14:05;4.90;99.90
38860;DHT22;24609;48.316;16.174;2023-04-03T03:16:31;4.90;99.90
38860;DHT22;24609;48.316;16.174;2023-04-03T03:18:57;4.90;99.90
38860;DHT22;24609;48.316;16.174;2023-04-03T03:21:22;4.90;99.90
38860;DHT22;24609;48.316;16.174;2023-04-03T03:23:48;4.90;99.90
38860;DHT22;24609;48.316;16.174;2023-04-03T03:26:14;4.90;99.90
38860;DHT22;24609;48.316;16.174;2023-04-03T03:28:40;4.90;99.90
38860;DHT22;24609;48.316;16.174;2023-04-03T03:31:07;4.90;99.90
38860;DHT22;24609;48.316;16.174;2023-04-03T03:33:33;4.90;99.90
38860;DHT22;24609;48.316;16.174;2023-04-03T03:35:59;4.90;99.90
38860;DHT22;24609;48.316;16.174;2023-04-03T03:38:25;4.90;99.90
38860;DHT22;24609;48.316;16.174;2023-04-03T03:40:51;4.90;99.90
38860;DHT22;24609;48.316;16.174;2023-04-03T03:43:17;4.90;99.90
38860;DHT22;24609;48.316;16.174;2023-04-03T03:45:44;4.90;99.90
38860;DHT22;24609;48.316;16.174;2023-04-03T03:48:09;4.90;99.90
38860;DHT22;24609;48.316;16.174;2023-04-03T03:50:35;4.90;99.90
38860;DHT22;24609;48.316;16.174;2023-04-03T03:53:01;4.90;99.90
38860;DHT22;24609;48.316;16.174;2023-04-03T03:55:27;4.90;99.90
38860;DHT22;24609;48.316;16.174;2023-04-03T03:57:52;4.80;99.90
38860;DHT22;24609;48.316;16.174;2023-04-03T04:00:18;4.90;99.90
38860;DHT22;24609;48.316;16.174;2023-04-03T04:02:44;4.90;99.90
38860;DHT22;24609;48.316;16.174;2023-04-03T04:05:10;4.90;99.90
38860;DHT22;24609;48.316;16.174;2023-04-03T04:07:35;4.90;99.90
38860;DHT22;24609;48.316;16.174;2023-04-03T04:10:01;4.80;99.90
38860;DHT22;24609;48.316;16.174;2023-04-03T04:12:28;4.80;99.90
38860;DHT22;24609;48.316;16.174;2023-04-03T04:14:56;4.80;99.90
38860;DHT22;24609;48.316;16.174;2023-04-03T04:17:22;4.80;99.90
38860;DHT22;24609;48.316;16.174;2023-04-03T04:19:47;4.80;99.90
38860;DHT22;24609;48.316;16.174;2023-04-03T04:22:13;4.80;99.90
38860;DHT22;24609;48.316;16.174;2023-04-03T04:24:38;4.80;99.90
38860;DHT22;24609;48.316;16.174;2023-04-03T04:27:04;4.80;99.90
38860;DHT22;24609;48.316;16.174;2023-04-03T04:29:30;4.80;99.90
38860;DHT22;24609;48.316;16.174;2023-04-03T04:32:01;4.70;99.90
38860;DHT22;24609;48.316;16.174;2023-04-03T04:34:26;4.80;99.90
38860;DHT22;24609;48.316;16.174;2023-04-03T04:36:52;4.80;99.90
38860;DHT22;24609;48.316;16.174;2023-04-03T04:39:17;4.70;99.90
38860;DHT22;24609;48.316;16.174;2023-04-03T04:41:43;4.70;99.90
38860;DHT22;24609;48.316;16.174;2023-04-03T04:44:09;4.70;99.90
38860;DHT22;24609;48.316;16.174;2023-04-03T04:46:34;4.70;99.90
38860;DHT22;24609;48.316;16.174;2023-04-03T04:49:00;4.70;99.90
38860;DHT22;24609;48.316;16.174;2023-04-03T04:51:26;4.70;99.90
38860;DHT22;24609;48.316;16.174;2023-04-03T04:53:51;4.70;99.90
38860;DHT22;24609;48.316;16.174;2023-04-03T04:56:17;4.70;99.90
38860;DHT22;24609;48.316;16.174;2023-04-03T04:58:43;4.70;99.90
38860;DHT22;24609;48.316;16.174;2023-04-03T05:01:09;4.70;99.90
38860;DHT22;24609;48.316;16.174;2023-04-03T05:03:35;4.70;99.90
38860;DHT22;24609;48.316;16.174;2023-04-03T05:06:01;4.70;99.90
38860;DHT22;24609;48.316;16.174;2023-04-03T05:08:27;4.70;99.90
38860;DHT22;24609;48.316;16.174;2023-04-03T05:10:53;4.70;99.90
38860;DHT22;24609;48.316;16.174;2023-04-03T05:13:19;4.70;99.90
38860;DHT22;24609;48.316;16.174;2023-04-03T05:15:45;4.70;99.90
38860;DHT22;24609;48.316;16.174;2023-04-03T05:18:11;4.70;99.90
38860;DHT22;24609;48.316;16.174;2023-04-03T05:20:37;4.70;99.90
38860;DHT22;24609;48.316;16.174;2023-04-03T05:23:02;4.80;99.90
38860;DHT22;24609;48.316;16.174;2023-04-03T05:25:28;4.80;99.90
38860;DHT22;24609;48.316;16.174;2023-04-03T05:27:55;4.80;99.90
38860;DHT22;24609;48.316;16.174;2023-04-03T05:30:20;4.80;99.90
38860;DHT22;24609;48.316;16.174;2023-04-03T05:32:46;4.80;99.90
38860;DHT22;24609;48.316;16.174;2023-04-03T05:35:12;4.80;99.90
38860;DHT22;24609;48.316;16.174;2023-04-03T05:37:38;4.80;99.90
38860;DHT22;24609;48.316;16.174;2023-04-03T05:40:05;4.90;99.90
38860;DHT22;24609;48.316;16.174;2023-04-03T05:42:32;4.90;99.90
38860;DHT22;24609;48.316;16.174;2023-04-03T05:44:58;5.00;99.90
38860;DHT22;24609;48.316;16.174;2023-04-03T05:47:23;5.00;99.90
38860;DHT22;24609;48.316;16.174;2023-04-03T05:49:49;5.00;99.90
38860;DHT22;24609;48.316;16.174;2023-04-03T05:54:51;5.00;99.90
38860;DHT22;24609;48.316;16.174;2023-04-03T05:57:17;5.00;99.90
38860;DHT22;24609;48.316;16.174;2023-04-03T05:59:44;5.00;99.90
38860;DHT22;24609;48.316;16.174;2023-04-03T06:02:15;5.00;99.90
38860;DHT22;24609;48.316;16.174;2023-04-03T06:04:41;4.90;99.90
38860;DHT22;24609;48.316;16.174;2023-04-03T06:07:14;4.90;99.90
38860;DHT22;24609;48.316;16.174;2023-04-03T06:09:41;4.90;99.90
38860;DHT22;24609;48.316;16.174;2023-04-03T06:12:08;4.80;99.90
38860;DHT22;24609;48.316;16.174;2023-04-03T06:14:34;4.90;99.90
38860;DHT22;24609;48.316;16.174;2023-04-03T06:17:00;5.00;99.90
38860;DHT22;24609;48.316;16.174;2023-04-03T06:19:25;5.10;99.90
38860;DHT22;24609;48.316;16.174;2023-04-03T06:21:52;5.10;99.90
38860;DHT22;24609;48.316;16.174;2023-04-03T06:24:17;5.20;99.90
38860;DHT22;24609;48.316;16.174;2023-04-03T06:26:43;5.10;99.90
38860;DHT22;24609;48.316;16.174;2023-04-03T06:29:09;5.30;99.90
38860;DHT22;24609;48.316;16.174;2023-04-03T06:31:35;5.20;99.90
38860;DHT22;24609;48.316;16.174;2023-04-03T06:34:02;5.30;99.90
38860;DHT22;24609;48.316;16.174;2023-04-03T06:36:28;5.10;99.90
38860;DHT22;24609;48.316;16.174;2023-04-03T06:38:54;5.10;99.90
38860;DHT22;24609;48.316;16.174;2023-04-03T06:41:22;5.10;99.90
38860;DHT22;24609;48.316;16.174;2023-04-03T06:43:48;5.20;99.90
38860;DHT22;24609;48.316;16.174;2023-04-03T06:46:15;5.20;99.90
38860;DHT22;24609;48.316;16.174;2023-04-03T06:48:41;5.20;99.90
38860;DHT22;24609;48.316;16.174;2023-04-03T06:51:18;5.20;99.90
38860;DHT22;24609;48.316;16.174;2023-04-03T06:53:46;5.20;99.90
38860;DHT22;24609;48.316;16.174;2023-04-03T06:56:12;5.30;99.90
38860;DHT22;24609;48.316;16.174;2023-04-03T06:58:38;5.40;99.90
38860;DHT22;24609;48.316;16.174;2023-04-03T07:01:04;5.50;99.90
38860;DHT22;24609;48.316;16.174;2023-04-03T07:03:30;5.30;99.90
38860;DHT22;24609;48.316;16.174;2023-04-03T07:05:55;5.30;99.90
38860;DHT22;24609;48.316;16.174;2023-04-03T07:08:21;5.40;99.90
38860;DHT22;24609;48.316;16.174;2023-04-03T07:10:48;5.30;99.90
38860;DHT22;24609;48.316;16.174;2023-04-03T07:13:14;5.20;99.90
38860;DHT22;24609;48.316;16.174;2023-04-03T07:15:40;5.20;99.90
38860;DHT22;24609;48.316;16.174;2023-04-03T07:18:05;5.30;99.90
38860;DHT22;24609;48.316;16.174;2023-04-03T07:20:31;5.50;99.90
38860;DHT22;24609;48.316;16.174;2023-04-03T07:22:57;5.80;99.90
38860;DHT22;24609;48.316;16.174;2023-04-03T07:25:23;5.80;99.90
38860;DHT22;24609;48.316;16.174;2023-04-03T07:27:48;5.90;99.90
38860;DHT22;24609;48.316;16.174;2023-04-03T07:30:14;6.20;99.90
38860;DHT22;24609;48.316;16.174;2023-04-03T07:32:40;6.30;99.90
38860;DHT22;24609;48.316;16.174;2023-04-03T07:35:06;6.30;99.90
38860;DHT22;24609;48.316;16.174;2023-04-03T07:37:32;6.80;99.90
38860;DHT22;24609;48.316;16.174;2023-04-03T07:39:58;6.90;99.90
38860;DHT22;24609;48.316;16.174;2023-04-03T07:42:25;7.20;99.90
38860;DHT22;24609;48.316;16.174;2023-04-03T07:44:53;7.20;99.90
38860;DHT22;24609;48.316;16.174;2023-04-03T07:47:19;7.30;99.90
38860;DHT22;24609;48.316;16.174;2023-04-03T07:49:45;7.00;99.90
38860;DHT22;24609;48.316;16.174;2023-04-03T07:52:11;6.80;99.90
38860;DHT22;24609;48.316;16.174;2023-04-03T07:54:37;6.70;99.90
38860;DHT22;24609;48.316;16.174;2023-04-03T07:57:03;7.00;99.90
38860;DHT22;24609;48.316;16.174;2023-04-03T07:59:29;7.00;99.90
38860;DHT22;24609;48.316;16.174;2023-04-03T08:01:55;7.30;99.90
38860;DHT22;24609;48.316;16.174;2023-04-03T08:04:21;7.30;99.90
38860;DHT22;24609;48.316;16.174;2023-04-03T08:06:47;6.70;99.90
38860;DHT22;24609;48.316;16.174;2023-04-03T08:09:16;6.80;99.90
38860;DHT22;24609;48.316;16.174;2023-04-03T08:11:42;7.00;99.90
38860;DHT22;24609;48.316;16.174;2023-04-03T08:14:08;7.50;99.90
38860;DHT22;24609;48.316;16.174;2023-04-03T08:16:41;7.80;99.90
38860;DHT22;24609;48.316;16.174;2023-04-03T08:19:07;8.30;99.90
38860;DHT22;24609;48.316;16.174;2023-04-03T08:21:33;8.10;99.90
38860;DHT22;24609;48.316;16.174;2023-04-03T08:23:58;7.10;99.90
38860;DHT22;24609;48.316;16.174;2023-04-03T08:26:24;7.40;99.90
38860;DHT22;24609;48.316;16.174;2023-04-03T08:28:52;9.50;99.90
38860;DHT22;24609;48.316;16.174;2023-04-03T08:31:19;9.50;99.90
38860;DHT22;24609;48.316;16.174;2023-04-03T08:33:45;9.70;98.70
38860;DHT22;24609;48.316;16.174;2023-04-03T08:36:23;9.20;99.90
38860;DHT22;24609;48.316;16.174;2023-04-03T08:38:50;9.60;99.70
38860;DHT22;24609;48.316;16.174;2023-04-03T08:41:35;11.10;98.00
38860;DHT22;24609;48.316;16.174;2023-04-03T08:49:43;8.40;98.80
38860;DHT22;24609;48.316;16.174;2023-04-03T08:55:25;8.00;99.90
38860;DHT22;24609;48.316;16.174;2023-04-03T08:58:00;7.30;99.90
38860;DHT22;24609;48.316;16.174;2023-04-03T09:00:30;6.70;99.90
38860;DHT22;24609;48.316;16.174;2023-04-03T09:02:57;6.60;99.90
38860;DHT22;24609;48.316;16.174;2023-04-03T09:05:48;6.80;99.90
38860;DHT22;24609;48.316;16.174;2023-04-03T09:11:25;7.00;99.90
38860;DHT22;24609;48.316;16.174;2023-04-03T09:14:00;7.00;99.90
38860;DHT22;24609;48.316;16.174;2023-04-03T09:19:20;6.40;99.90
38860;DHT22;24609;48.316;16.174;2023-04-03T09:21:47;6.30;99.90
38860;DHT22;24609;48.316;16.174;2023-04-03T09:24:15;6.50;99.90
38860;DHT22;24609;48.316;16.174;2023-04-03T09:26:46;6.90;99.90
38860;DHT22;24609;48.316;16.174;2023-04-03T09:29:18;7.40;98.40
38860;DHT22;24609;48.316;16.174;2023-04-03T09:31:46;7.40;98.80
38860;DHT22;24609;48.316;16.174;2023-04-03T09:36:55;13.60;83.80
38860;DHT22;24609;48.316;16.174;2023-04-03T09:39:30;11.20;82.50
38860;DHT22;24609;48.316;16.174;2023-04-03T09:42:02;8.50;89.70
38860;DHT22;24609;48.316;16.174;2023-04-03T09:44:34;7.70;90.70
38860;DHT22;24609;48.316;16.174;2023-04-03T09:47:30;7.20;91.30
38860;DHT22;24609;48.316;16.174;2023-04-03T09:52:47;7.00;92.70
38860;DHT22;24609;48.316;16.174;2023-04-03T09:55:18;7.00;93.20
38860;DHT22;24609;48.316;16.174;2023-04-03T09:57:47;7.60;92.60
38860;DHT22;24609;48.316;16.174;2023-04-03T10:00:38;7.90;92.50
38860;DHT22;24609;48.316;16.174;2023-04-03T10:03:28;7.30;93.00
38860;DHT22;24609;48.316;16.174;2023-04-03T10:05:54;7.10;93.20
38860;DHT22;24609;48.316;16.174;2023-04-03T10:08:33;7.20;91.50
38860;DHT22;24609;48.316;16.174;2023-04-03T10:11:14;7.10;92.20
38860;DHT22;24609;48.316;16.174;2023-04-03T10:13:57;7.00;91.60
38860;DHT22;24609;48.316;16.174;2023-04-03T10:16:38;6.70;92.00
38860;DHT22;24609;48.316;16.174;2023-04-03T10:19:34;6.60;93.00
38860;DHT22;24609;48.316;16.174;2023-04-03T10:22:56;6.40;92.30
38860;DHT22;24609;48.316;16.174;2023-04-03T10:25:04;6.40;92.70
38860;DHT22;24609;48.316;16.174;2023-04-03T10:27:53;6.70;93.00
38860;DHT22;24609;48.316;16.174;2023-04-03T10:30:43;7.20;93.00
38860;DHT22;24609;48.316;16.174;2023-04-03T10:33:36;7.70;92.10
38860;DHT22;24609;48.316;16.174;2023-04-03T10:52:30;7.20;92.60
38860;DHT22;24609;48.316;16.174;2023-04-03T10:57:40;7.10;90.30
38860;DHT22;24609;48.316;16.174;2023-04-03T11:00:21;7.50;91.00
38860;DHT22;24609;48.316;16.174;2023-04-03T11:05:36;8.40;89.20
38860;DHT22;24609;48.316;16.174;2023-04-03T11:08:13;8.70;84.90
38860;DHT22;24609;48.316;16.174;2023-04-03T11:10:45;8.70;87.80
38860;DHT22;24609;48.316;16.174;2023-04-03T11:13:16;9.00;87.50
38860;DHT22;24609;48.316;16.174;2023-04-03T11:15:43;9.60;82.50
38860;DHT22;24609;48.316;16.174;2023-04-03T11:18:26;10.30;81.30
38860;DHT22;24609;48.316;16.174;2023-04-03T11:21:04;9.70;80.90
38860;DHT22;24609;48.316;16.174;2023-04-03T11:23:35;9.00;79.30
38860;DHT22;24609;48.316;16.174;2023-04-03T11:26:06;9.20;84.50
38860;DHT22;24609;48.316;16.174;2023-04-03T11:28:33;8.50;82.80
38860;DHT22;24609;48.316;16.174;2023-04-03T11:34:08;7.80;83.20
38860;DHT22;24609;48.316;16.174;2023-04-03T11:36:48;8.10;81.80
38860;DHT22;24609;48.316;16.174;2023-04-03T11:39:26;8.10;83.20
38860;DHT22;24609;48.316;16.174;2023-04-03T11:41:54;7.90;83.60
38860;DHT22;24609;48.316;16.174;2023-04-03T11:44:36;8.20;84.80
38860;DHT22;24609;48.316;16.174;2023-04-03T11:47:05;8.10;79.50
38860;DHT22;24609;48.316;16.174;2023-04-03T11:58:11;8.40;83.10
38860;DHT22;24609;48.316;16.174;2023-04-03T12:05:55;8.20;81.10
38860;DHT22;24609;48.316;16.174;2023-04-03T12:13:40;7.30;79.00
38860;DHT22;24609;48.316;16.174;2023-04-03T12:16:27;7.20;84.00
38860;DHT22;24609;48.316;16.174;2023-04-03T12:19:04;6.80;84.10
38860;DHT22;24609;48.316;16.174;2023-04-03T12:24:26;6.10;87.30
38860;DHT22;24609;48.316;16.174;2023-04-03T12:29:34;6.50;84.30
38860;DHT22;24609;48.316;16.174;2023-04-03T12:48:57;7.50;75.80
38860;DHT22;24609;48.316;16.174;2023-04-03T12:51:39;7.50;79.70
38860;DHT22;24609;48.316;16.174;2023-04-03T12:54:35;7.70;73.40
38860;DHT22;24609;48.316;16.174;2023-04-03T12:57:13;7.50;75.50
38860;DHT22;24609;48.316;16.174;2023-04-03T12:59:41;7.20;77.70
38860;DHT22;24609;48.316;16.174;2023-04-03T13:02:31;7.20;77.80
38860;DHT22;24609;48.316;16.174;2023-04-03T13:05:05;7.30;79.70
38860;DHT22;24609;48.316;16.174;2023-04-03T13:07:34;7.00;78.10
38860;DHT22;24609;48.316;16.174;2023-04-03T13:12:54;7.00;76.50
38860;DHT22;24609;48.316;16.174;2023-04-03T13:15:29;6.90;76.00
38860;DHT22;24609;48.316;16.174;2023-04-03T13:17:56;7.20;77.50
38860;DHT22;24609;48.316;16.174;2023-04-03T13:20:29;7.50;75.40
38860;DHT22;24609;48.316;16.174;2023-04-03T13:23:08;8.60;73.60
38860;DHT22;24609;48.316;16.174;2023-04-03T13:25:40;8.70;76.00
38860;DHT22;24609;48.316;16.174;2023-04-03T13:28:07;8.20;71.10
38860;DHT22;24609;48.316;16.174;2023-04-03T13:30:38;8.30;77.10
38860;DHT22;24609;48.316;16.174;2023-04-03T13:33:18;8.00;76.50
38860;DHT22;24609;48.316;16.174;2023-04-03T13:35:45;7.90;76.80
38860;DHT22;24609;48.316;16.174;2023-04-03T13:38:31;7.70;77.50
38860;DHT22;24609;48.316;16.174;2023-04-03T13:41:26;7.20;80.10
38860;DHT22;24609;48.316;16.174;2023-04-03T13:43:52;6.70;78.90
38860;DHT22;24609;48.316;16.174;2023-04-03T13:48:46;6.50;84.50
38860;DHT22;24609;48.316;16.174;2023-04-03T13:53:57;6.30;84.30
38860;DHT22;24609;48.316;16.174;2023-04-03T13:56:37;6.30;82.40
38860;DHT22;24609;48.316;16.174;2023-04-03T14:01:54;6.90;81.00
38860;DHT22;24609;48.316;16.174;2023-04-03T14:04:24;7.70;83.50
38860;DHT22;24609;48.316;16.174;2023-04-03T14:06:50;7.80;76.60
38860;DHT22;24609;48.316;16.174;2023-04-03T14:09:18;7.70;79.00
38860;DHT22;24609;48.316;16.174;2023-04-03T14:11:44;7.40;79.40
38860;DHT22;24609;48.316;16.174;2023-04-03T14:14:21;6.80;79.50
38860;DHT22;24609;48.316;16.174;2023-04-03T14:16:53;6.60;82.10
38860;DHT22;24609;48.316;16.174;2023-04-03T14:19:37;6.50;79.10
38860;DHT22;24609;48.316;16.174;2023-04-03T14:22:32;7.10;81.30
38860;DHT22;24609;48.316;16.174;2023-04-03T14:24:57;7.20;82.40
38860;DHT22;24609;48.316;16.174;2023-04-03T14:27:24;7.20;81.10
38860;DHT22;24609;48.316;16.174;2023-04-03T14:29:52;7.00;83.40
38860;DHT22;24609;48.316;16.174;2023-04-03T14:32:19;6.80;85.10
38860;DHT22;24609;48.316;16.174;2023-04-03T14:34:49;6.60;83.50
38860;DHT22;24609;48.316;16.174;2023-04-03T14:37:23;6.50;83.90
38860;DHT22;24609;48.316;16.174;2023-04-03T14:39:51;6.30;81.20
38860;DHT22;24609;48.316;16.174;2023-04-03T14:42:20;6.40;84.50
38860;DHT22;24609;48.316;16.174;2023-04-03T14:44:46;6.30;85.30
38860;DHT22;24609;48.316;16.174;2023-04-03T14:47:14;6.30;87.10
38860;DHT22;24609;48.316;16.174;2023-04-03T14:49:41;6.20;87.00
38860;DHT22;24609;48.316;16.174;2023-04-03T14:52:25;6.00;87.60
38860;DHT22;24609;48.316;16.174;2023-04-03T14:54:52;6.00;88.80
38860;DHT22;24609;48.316;16.174;2023-04-03T14:57:18;6.20;87.40
38860;DHT22;24609;48.316;16.174;2023-04-03T14:59:45;6.40;87.90
38860;DHT22;24609;48.316;16.174;2023-04-03T15:02:33;6.60;86.90
38860;DHT22;24609;48.316;16.174;2023-04-03T15:05:00;6.60;86.20
38860;DHT22;24609;48.316;16.174;2023-04-03T15:07:31;6.50;86.10
38860;DHT22;24609;48.316;16.174;2023-04-03T15:10:02;6.60;85.10
38860;DHT22;24609;48.316;16.174;2023-04-03T15:12:27;6.80;87.90
38860;DHT22;24609;48.316;16.174;2023-04-03T15:14:53;6.80;83.20
38860;DHT22;24609;48.316;16.174;2023-04-03T15:17:21;6.70;82.80
38860;DHT22;24609;48.316;16.174;2023-04-03T15:19:48;6.80;81.20
38860;DHT22;24609;48.316;16.174;2023-04-03T15:22:16;6.80;82.10
38860;DHT22;24609;48.316;16.174;2023-04-03T15:24:43;6.60;82.60
38860;DHT22;24609;48.316;16.174;2023-04-03T15:27:09;6.20;82.50
38860;DHT22;24609;48.316;16.174;2023-04-03T15:29:36;6.00;86.70
38860;DHT22;24609;48.316;16.174;2023-04-03T15:32:02;5.80;81.80
38860;DHT22;24609;48.316;16.174;2023-04-03T15:34:28;5.70;82.30
38860;DHT22;24609;48.316;16.174;2023-04-03T15:36:54;5.80;84.20
38860;DHT22;24609;48.316;16.174;2023-04-03T15:39:20;5.80;82.70
38860;DHT22;24609;48.316;16.174;2023-04-03T15:41:46;5.80;79.70
38860;DHT22;24609;48.316;16.174;2023-04-03T15:44:12;5.90;79.40
38860;DHT22;24609;48.316;16.174;2023-04-03T15:46:39;6.10;81.80
38860;DHT22;24609;48.316;16.174;2023-04-03T15:49:05;6.10;79.60
38860;DHT22;24609;48.316;16.174;2023-04-03T15:51:31;5.90;80.20
38860;DHT22;24609;48.316;16.174;2023-04-03T15:53:57;5.70;81.30
38860;DHT22;24609;48.316;16.174;2023-04-03T15:56:22;5.60;81.70
38860;DHT22;24609;48.316;16.174;2023-04-03T15:58:48;5.50;84.40
38860;DHT22;24609;48.316;16.174;2023-04-03T16:01:14;5.50;84.30
38860;DHT22;24609;48.316;16.174;2023-04-03T16:03:41;5.50;84.30
38860;DHT22;24609;48.316;16.174;2023-04-03T16:06:13;5.50;83.40
38860;DHT22;24609;48.316;16.174;2023-04-03T16:08:39;5.50;80.60
38860;DHT22;24609;48.316;16.174;2023-04-03T16:11:04;5.50;81.10
38860;DHT22;24609;48.316;16.174;2023-04-03T16:13:30;5.50;83.00
38860;DHT22;24609;48.316;16.174;2023-04-03T16:15:56;5.40;83.40
38860;DHT22;24609;48.316;16.174;2023-04-03T16:18:22;5.30;84.00
38860;DHT22;24609;48.316;16.174;2023-04-03T16:20:47;5.30;84.00
38860;DHT22;24609;48.316;16.174;2023-04-03T16:23:13;5.30;83.70
38860;DHT22;24609;48.316;16.174;2023-04-03T16:25:39;5.20;83.70
38860;DHT22;24609;48.316;16.174;2023-04-03T16:28:05;5.20;86.20
38860;DHT22;24609;48.316;16.174;2023-04-03T16:30:32;5.20;86.10
38860;DHT22;24609;48.316;16.174;2023-04-03T16:32:58;5.10;84.00
38860;DHT22;24609;48.316;16.174;2023-04-03T16:35:24;5.10;83.30
38860;DHT22;24609;48.316;16.174;2023-04-03T16:37:50;5.10;84.60
38860;DHT22;24609;48.316;16.174;2023-04-03T16:40:15;4.90;84.30
38860;DHT22;24609;48.316;16.174;2023-04-03T16:42:41;4.90;85.30
38860;DHT22;24609;48.316;16.174;2023-04-03T16:45:07;4.90;85.20
38860;DHT22;24609;48.316;16.174;2023-04-03T16:47:33;4.90;87.10
38860;DHT22;24609;48.316;16.174;2023-04-03T16:49:59;4.80;86.20
38860;DHT22;24609;48.316;16.174;2023-04-03T16:52:25;4.80;84.80
38860;DHT22;24609;48.316;16.174;2023-04-03T16:54:50;4.80;85.30
38860;DHT22;24609;48.316;16.174;2023-04-03T16:57:21;4.70;84.30
38860;DHT22;24609;48.316;16.174;2023-04-03T16:59:47;4.70;86.00
38860;DHT22;24609;48.316;16.174;2023-04-03T17:02:16;4.70;84.00
38860;DHT22;24609;48.316;16.174;2023-04-03T17:04:42;4.60;86.20
38860;DHT22;24609;48.316;16.174;2023-04-03T17:07:07;4.60;86.10
38860;DHT22;24609;48.316;16.174;2023-04-03T17:09:33;4.60;86.60
38860;DHT22;24609;48.316;16.174;2023-04-03T17:11:59;4.50;87.50
38860;DHT22;24609;48.316;16.174;2023-04-03T17:14:25;4.50;86.60
38860;DHT22;24609;48.316;16.174;2023-04-03T17:16:51;4.50;87.30
38860;DHT22;24609;48.316;16.174;2023-04-03T17:19:17;4.40;88.50
38860;DHT22;24609;48.316;16.174;2023-04-03T17:21:43;4.40;85.30
38860;DHT22;24609;48.316;16.174;2023-04-03T17:24:10;4.40;87.00